Time;durP1;ratioP1;P1;durP2;ratioP2;P2;SDS_P1;SDS_P2;PMS_P1;PMS_P2;Temp;Humidity;BMP_temperature;BMP_pressure;BME280_temperature;BME280_humidity;BME280_pressure;Samples;Min_cycle;Max_cycle;Signal;HPM_P1;HPM_P2
2022/03/31 00:04:56;;;;;;;11.48;10.57;;;;;;;3.42;90.59;98679.53;10099821;29;20041;-68
2022/03/31 00:09:57;;;;;;;13.82;12.52;;;;;;;3.37;90.25;98689.19;10099719;29;20060;-68
2022/03/31 00:14:59;;;;;;;13.35;12.20;;;;;;;3.38;89.57;98677.91;10099338;29;20049;-68
2022/03/31 00:20:00;;;;;;;12.90;11.90;;;;;;;3.38;89.65;98679.66;10099147;29;20045;-68
2022/03/31 00:25:07;;;;;;;12.73;11.48;;;;;;;3.40;88.92;98691.69;10099316;29;20045;-68
2022/03/31 00:30:11;;;;;;;13.05;11.93;;;;;;;3.31;89.97;98689.31;10099189;29;20057;-68
2022/03/31 00:35:13;;;;;;;13.32;12.20;;;;;;;3.28;90.17;98684.22;10082352;29;20060;-68
2022/03/31 00:40:18;;;;;;;13.07;11.90;;;;;;;3.28;89.57;98679.03;10099029;29;20052;-68
2022/03/31 00:45:25;;;;;;;13.00;11.85;;;;;;;3.48;87.81;98666.38;10098886;29;20075;-68
2022/03/31 00:50:28;;;;;;;13.80;11.50;;;;;;;3.39;87.15;98669.22;10097889;29;20057;-68
2022/03/31 00:55:29;;;;;;;12.02;11.00;;;;;;;3.37;87.56;98667.56;10096764;29;20049;-68
2022/03/31 01:00:31;;;;;;;12.07;11.13;;;;;;;3.33;87.49;98652.94;10098892;29;20052;-68
2022/03/31 01:05:37;;;;;;;11.90;10.82;;;;;;;3.38;86.56;98651.94;10097558;29;20582;-68
2022/03/31 01:10:39;;;;;;;12.23;11.00;;;;;;;3.21;87.17;98662.72;10098411;29;20049;-68
2022/03/31 01:15:41;;;;;;;13.38;12.38;;;;;;;3.18;87.16;98660.19;10096932;29;20101;-68
2022/03/31 01:20:43;;;;;;;11.77;10.70;;;;;;;3.33;86.86;98647.75;10096669;29;20057;-68
2022/03/31 01:25:44;;;;;;;12.52;11.40;;;;;;;3.24;86.32;98646.22;10097497;29;20041;-68
2022/03/31 01:30:46;;;;;;;13.07;11.88;;;;;;;3.14;86.99;98655.09;10097895;29;20101;-69
2022/03/31 01:35:47;;;;;;;13.35;12.23;;;;;;;3.17;86.13;98644.66;10098291;29;20456;-68
2022/03/31 01:40:49;;;;;;;13.48;11.98;;;;;;;3.25;85.69;98647.94;10097364;29;20076;-68
2022/03/31 01:45:53;;;;;;;13.88;12.77;;;;;;;3.11;86.12;98652.59;10097637;29;20085;-68
2022/03/31 01:50:54;;;;;;;14.02;12.70;;;;;;;3.14;86.56;98655.97;10097473;29;20392;-68
2022/03/31 01:55:56;;;;;;;14.63;13.30;;;;;;;3.10;86.87;98650.88;10097453;29;20164;-68
2022/03/31 02:00:58;;;;;;;14.95;13.68;;;;;;;3.13;86.50;98649.06;10096781;29;20049;-68
2022/03/31 02:06:00;;;;;;;16.23;14.82;;;;;;;3.00;86.79;98642.47;10098505;29;20073;-68
2022/03/31 02:11:02;;;;;;;17.40;15.80;;;;;;;3.17;87.35;98642.06;10104672;29;20506;-68
2022/03/31 02:16:04;;;;;;;16.85;15.35;;;;;;;2.96;88.83;98644.25;10102904;29;20049;-68
2022/03/31 02:21:06;;;;;;;18.55;16.35;;;;;;;3.12;87.66;98636.97;10104442;29;20059;-68
2022/03/31 02:26:08;;;;;;;19.65;17.67;;;;;;;3.14;87.55;98634.34;10103002;29;20097;-68
2022/03/31 02:31:09;;;;;;;17.67;16.13;;;;;;;3.23;87.46;98632.41;10104651;29;20053;-68
2022/03/31 02:36:11;;;;;;;19.02;17.25;;;;;;;3.22;87.52;98627.22;10102863;29;20071;-68
2022/03/31 02:41:13;;;;;;;22.27;20.00;;;;;;;3.02;88.52;98630.31;10103104;29;20044;-68
2022/03/31 02:46:15;;;;;;;20.15;18.23;;;;;;;3.08;87.84;98624.97;10103270;29;20516;-68
2022/03/31 02:51:16;;;;;;;21.08;19.05;;;;;;;3.01;88.17;98616.47;10101788;29;20053;-68
2022/03/31 02:56:18;;;;;;;27.00;20.45;;;;;;;3.04;88.12;98612.94;10102995;29;20049;-68
2022/03/31 03:01:20;;;;;;;22.67;20.35;;;;;;;2.91;88.62;98619.31;10102952;29;20423;-68
2022/03/31 03:06:22;;;;;;;24.58;22.25;;;;;;;2.82;89.72;98620.38;10085970;29;20097;-68
2022/03/31 03:11:23;;;;;;;30.30;23.83;;;;;;;2.67;90.00;98618.16;10102633;29;20069;-67
2022/03/31 03:16:25;;;;;;;35.25;23.83;;;;;;;2.72;89.75;98608.50;10101864;29;20045;-67
2022/03/31 03:21:27;;;;;;;25.13;23.05;;;;;;;2.80;89.80;98604.00;10102120;29;20053;-67
2022/03/31 03:26:30;;;;;;;26.55;23.98;;;;;;;2.76;90.33;98599.78;10102183;29;20492;-67
2022/03/31 03:31:31;;;;;;;28.35;25.17;;;;;;;2.69;89.88;98611.16;10101551;29;20055;-67
2022/03/31 03:36:33;;;;;;;30.70;24.50;;;;;;;2.59;90.73;98604.50;10101404;29;20052;-67
2022/03/31 03:41:35;;;;;;;33.28;26.23;;;;;;;2.75;90.27;98604.13;10099840;29;20136;-67
2022/03/31 03:46:37;;;;;;;28.58;25.27;;;;;;;2.59;90.65;98601.91;10100725;29;20084;-67
2022/03/31 03:51:52;;;;;;;29.00;23.83;;;;;;;2.66;90.92;98591.34;10021486;29;20062;-68
2022/03/31 03:57:00;;;;;;;;;;;;;;;2.43;91.50;98599.63;10020677;29;20094;-67
2022/03/31 04:02:02;;;;;;;28.40;25.55;;;;;;;2.52;90.91;98599.44;10020330;29;19924;-68
2022/03/31 04:07:04;;;;;;;29.92;24.77;;;;;;;2.49;90.91;98596.91;10019336;29;20053;-68
2022/03/31 04:12:06;;;;;;;29.73;26.40;;;;;;;2.37;90.99;98589.41;10019608;29;20066;-68
2022/03/31 04:17:08;;;;;;;28.23;25.33;;;;;;;2.46;91.24;98586.59;10019396;29;20137;-68
2022/03/31 04:22:10;;;;;;;28.52;25.77;;;;;;;2.33;91.11;98584.31;10059136;29;20076;-67
2022/03/31 04:27:11;;;;;;;29.58;25.60;;;;;;;2.27;91.15;98593.09;10099050;29;20097;-68
2022/03/31 04:32:13;;;;;;;28.70;25.58;;;;;;;2.27;91.21;98593.94;10099084;29;20503;-67
2022/03/31 04:37:14;;;;;;;27.42;24.67;;;;;;;2.15;91.39;98589.00;10100095;29;20141;-67
2022/03/31 04:42:16;;;;;;;35.65;26.98;;;;;;;2.08;92.07;98586.56;10099086;29;20085;-68
2022/03/31 04:47:17;;;;;;;30.52;25.70;;;;;;;2.08;91.91;98590.03;10100457;29;20045;-68
2022/03/31 04:52:19;;;;;;;36.80;27.85;;;;;;;2.06;92.49;98593.53;10099435;29;20053;-67
2022/03/31 04:57:22;;;;;;;33.05;26.83;;;;;;;2.14;92.13;98586.47;10101649;29;20049;-68
2022/03/31 05:02:23;;;;;;;38.65;29.70;;;;;;;2.02;92.97;98582.38;10100014;29;20068;-68
2022/03/31 05:07:25;;;;;;;37.75;28.58;;;;;;;2.22;92.11;98589.75;10122661;23;20048;-75
2022/03/31 05:12:26;;;;;;;43.20;29.50;;;;;;;2.10;91.74;98590.00;10106246;29;20053;-73
2022/03/31 05:17:35;;;;;;;30.88;27.73;;;;;;;2.10;91.87;98595.19;10100632;29;20056;-74
2022/03/31 05:22:38;;;;;;;32.88;28.05;;;;;;;2.18;91.83;98594.13;10102552;29;20076;-74
2022/03/31 05:27:45;;;;;;;34.15;28.65;;;;;;;1.95;92.09;98594.63;10102806;29;20040;-75
2022/03/31 05:32:47;;;;;;;32.15;27.95;;;;;;;1.91;91.89;98589.53;10102208;29;20127;-74
2022/03/31 05:37:49;;;;;;;34.28;26.85;;;;;;;2.01;91.04;98593.63;10100364;29;20093;-73
2022/03/31 05:42:51;;;;;;;32.25;26.35;;;;;;;1.83;91.83;98592.25;10099540;29;20067;-73
2022/03/31 05:47:54;;;;;;;27.67;25.05;;;;;;;1.79;91.39;98615.66;10099229;29;20583;-73
2022/03/31 05:52:55;;;;;;;33.08;28.73;;;;;;;1.65;92.36;98614.19;10100989;29;20496;-72
2022/03/31 05:57:57;;;;;;;29.98;26.77;;;;;;;1.71;92.09;98616.66;10099062;29;20444;-72
2022/03/31 06:02:59;;;;;;;33.17;27.20;;;;;;;1.71;92.04;98624.41;10100060;29;20044;-73
2022/03/31 06:08:02;;;;;;;35.05;28.42;;;;;;;2.01;90.99;98622.13;10099144;29;20065;-73
2022/03/31 06:13:03;;;;;;;30.00;26.25;;;;;;;1.82;90.75;98621.66;10102135;29;20041;-74
2022/03/31 06:18:07;;;;;;;29.85;25.65;;;;;;;1.90;90.56;98613.69;10099666;29;20053;-72
2022/03/31 06:23:09;;;;;;;29.13;25.85;;;;;;;1.82;89.80;98623.38;10099185;29;20173;-74
2022/03/31 06:28:13;;;;;;;31.35;26.90;;;;;;;1.79;90.79;98616.50;10098779;29;20105;-73
2022/03/31 06:33:17;;;;;;;29.92;25.50;;;;;;;1.96;89.53;98623.97;10100245;29;20041;-74
2022/03/31 06:38:18;;;;;;;28.45;25.83;;;;;;;1.92;90.31;98617.97;10100222;29;20078;-73
2022/03/31 06:43:20;;;;;;;29.67;26.80;;;;;;;1.79;89.90;98608.75;10100208;29;20495;-73
2022/03/31 06:48:22;;;;;;;28.33;25.80;;;;;;;1.86;89.41;98618.13;10099935;29;20053;-73
2022/03/31 06:53:23;;;;;;;29.02;26.25;;;;;;;1.90;88.67;98624.06;10102470;29;20049;-73
2022/03/31 06:58:27;;;;;;;28.83;25.88;;;;;;;1.82;88.69;98631.16;10107692;29;20052;-72
2022/03/31 07:03:30;;;;;;;29.65;26.63;;;;;;;1.84;89.23;98629.38;10105834;29;20499;-72
2022/03/31 07:08:32;;;;;;;29.42;25.20;;;;;;;1.81;89.02;98625.09;10106651;29;20049;-74
2022/03/31 07:13:34;;;;;;;29.02;25.88;;;;;;;1.95;88.57;98625.72;10106581;29;20045;-74
2022/03/31 07:18:36;;;;;;;28.15;25.02;;;;;;;1.88;88.12;98616.34;10105450;29;20199;-74
2022/03/31 07:23:37;;;;;;;28.52;25.75;;;;;;;1.81;88.03;98629.44;10106837;29;20045;-72
2022/03/31 07:28:39;;;;;;;27.98;25.02;;;;;;;1.75;88.35;98620.91;10105455;29;20430;-73
2022/03/31 07:33:41;;;;;;;27.80;25.35;;;;;;;2.01;88.77;98622.13;10103744;29;20507;-74
2022/03/31 07:38:43;;;;;;;31.00;25.63;;;;;;;1.82;87.83;98621.66;10104098;29;20071;-74
2022/03/31 07:43:44;;;;;;;29.83;25.02;;;;;;;1.77;87.11;98619.16;10102994;29;20072;-73
2022/03/31 07:48:46;;;;;;;28.98;25.02;;;;;;;1.88;86.80;98621.53;10103885;29;20121;-73
2022/03/31 07:53:48;;;;;;;31.00;25.20;;;;;;;2.02;86.47;98618.66;10102818;29;20053;-73
2022/03/31 07:58:49;;;;;;;28.00;25.23;;;;;;;1.98;86.15;98627.38;10103925;29;20622;-73
2022/03/31 08:03:53;;;;;;;28.77;25.23;;;;;;;2.09;85.98;98630.63;10104826;29;20073;-73
2022/03/31 08:08:54;;;;;;;34.38;26.08;;;;;;;1.95;85.74;98617.94;10103077;29;20053;-73
2022/03/31 08:13:56;;;;;;;27.30;24.70;;;;;;;1.97;86.14;98618.75;10103455;29;20053;-73
2022/03/31 08:18:58;;;;;;;29.42;25.30;;;;;;;1.95;86.26;98614.50;10102387;29;20144;-73
2022/03/31 08:24:00;;;;;;;32.33;25.50;;;;;;;1.87;85.87;98624.16;10103211;29;20120;-73
2022/03/31 08:29:01;;;;;;;28.67;25.67;;;;;;;1.97;85.63;98615.31;10102764;29;20053;-73
2022/03/31 08:34:05;;;;;;;27.50;24.33;;;;;;;1.95;85.40;98602.38;10101104;29;20045;-73
2022/03/31 08:39:07;;;;;;;29.58;24.77;;;;;;;1.93;85.99;98609.31;10101933;29;20137;-72
2022/03/31 08:44:10;;;;;;;27.92;25.00;;;;;;;2.11;84.78;98623.66;10102130;29;20055;-73
2022/03/31 08:49:12;;;;;;;28.60;25.77;;;;;;;1.98;85.28;98625.63;10100786;29;20049;-72
2022/03/31 08:54:14;;;;;;;27.55;24.95;;;;;;;2.13;85.21;98616.72;10102223;29;20491;-72
2022/03/31 08:59:16;;;;;;;30.60;25.60;;;;;;;1.91;84.99;98630.97;10100845;29;20087;-71
2022/03/31 09:04:22;;;;;;;25.75;23.30;;;;;;;2.01;85.20;98625.56;10101023;29;20411;-72
2022/03/31 09:09:23;;;;;;;29.55;26.52;;;;;;;2.20;84.67;98609.66;10103283;29;20057;-74
2022/03/31 09:14:33;;;;;;;33.25;25.05;;;;;;;2.23;84.24;98618.22;10099846;29;20460;-74
2022/03/31 09:19:34;;;;;;;27.15;24.42;;;;;;;2.28;84.23;98624.16;10100898;29;20495;-72
2022/03/31 09:24:36;;;;;;;25.25;23.00;;;;;;;2.40;83.04;98627.41;10099973;29;20049;-73
2022/03/31 09:29:37;;;;;;;25.00;22.80;;;;;;;2.28;83.00;98628.50;10101031;29;20060;-72
2022/03/31 09:34:49;;;;;;;26.45;23.63;;;;;;;2.38;83.21;98630.00;10100166;29;20109;-72
2022/03/31 09:39:55;;;;;;;26.35;23.50;;;;;;;2.45;82.57;98617.78;10099683;29;20056;-72
2022/03/31 09:44:58;;;;;;;25.05;22.92;;;;;;;2.46;82.86;98616.88;10100438;29;20056;-72
2022/03/31 09:50:00;;;;;;;26.20;23.73;;;;;;;2.45;82.70;98615.19;10099714;29;20507;-73
2022/03/31 09:55:02;;;;;;;26.17;23.55;;;;;;;2.41;82.54;98616.13;10099168;29;20102;-72
2022/03/31 10:00:06;;;;;;;27.65;24.67;;;;;;;2.28;83.75;98620.72;10098786;29;20123;-73
2022/03/31 10:05:15;;;;;;;26.08;23.35;;;;;;;2.43;82.45;98606.56;10100692;29;20419;-73
2022/03/31 10:10:19;;;;;;;26.93;24.17;;;;;;;2.17;83.09;98607.09;10098424;29;20057;-74
2022/03/31 10:15:30;;;;;;;28.10;24.70;;;;;;;2.31;83.11;98605.09;10099378;29;20059;-73
2022/03/31 10:20:31;;;;;;;26.17;23.85;;;;;;;2.43;82.61;98604.81;10099372;29;20464;-73
2022/03/31 10:25:37;;;;;;;27.35;24.48;;;;;;;2.59;82.03;98597.56;10099576;29;20049;-73
2022/03/31 10:30:52;;;;;;;31.42;25.13;;;;;;;2.57;82.64;98599.34;10107064;29;20411;-72
2022/03/31 10:36:09;;;;;;;26.33;23.92;;;;;;;2.56;82.33;98591.59;10105334;29;20084;-72
2022/03/31 10:41:13;;;;;;;26.42;23.80;;;;;;;2.48;81.62;98604.75;10105769;29;20053;-72
2022/03/31 10:46:20;;;;;;;26.92;24.48;;;;;;;2.41;82.62;98603.16;10106573;29;20048;-73
2022/03/31 10:51:36;;;;;;;27.00;24.30;;;;;;;2.49;82.10;98596.06;10104332;29;20049;-74
2022/03/31 10:56:40;;;;;;;26.10;23.80;;;;;;;2.45;82.44;98597.03;10105480;29;20077;-72
2022/03/31 11:01:41;;;;;;;29.98;24.95;;;;;;;2.64;82.03;98590.53;10105764;29;20091;-72
2022/03/31 11:06:51;;;;;;;28.55;25.75;;;;;;;2.51;82.53;98597.72;10119881;23;20040;-73
2022/03/31 11:11:56;;;;;;;25.70;23.17;;;;;;;2.62;82.40;98581.09;10114059;29;20128;-74
2022/03/31 11:16:57;;;;;;;26.83;24.13;;;;;;;2.59;82.12;98578.56;10109843;29;20073;-74
2022/03/31 11:21:59;;;;;;;27.90;25.17;;;;;;;2.49;83.05;98568.38;10105391;29;20108;-75
2022/03/31 11:27:01;;;;;;;25.33;23.17;;;;;;;2.65;81.79;98584.44;10107273;29;20052;-74
2022/03/31 11:32:04;;;;;;;27.70;24.98;;;;;;;2.48;82.18;98596.97;10105067;29;20053;-74
2022/03/31 11:37:17;;;;;;;26.55;24.08;;;;;;;2.43;81.69;98584.06;10107571;29;20505;-74
2022/03/31 11:42:19;;;;;;;26.52;24.13;;;;;;;2.27;82.54;98586.16;10106009;29;20510;-74
2022/03/31 11:47:22;;;;;;;27.05;24.45;;;;;;;2.38;82.55;98580.72;10104569;29;20079;-75
2022/03/31 11:52:29;;;;;;;27.63;24.85;;;;;;;2.57;82.47;98572.53;10103910;29;20056;-74
2022/03/31 11:57:33;;;;;;;26.25;23.20;;;;;;;2.48;82.01;98563.25;10104607;29;20056;-74
2022/03/31 12:02:35;;;;;;;26.77;24.10;;;;;;;2.37;82.08;98565.22;10106955;29;20076;-74
2022/03/31 12:07:36;;;;;;;28.17;24.42;;;;;;;2.38;81.98;98575.53;10103351;29;20045;-73
2022/03/31 12:12:46;;;;;;;27.30;24.50;;;;;;;2.32;82.23;98560.13;10103639;29;20495;-74
2022/03/31 12:18:30;;;;;;;28.95;26.00;;;;;;;2.42;82.55;98561.63;10103326;29;20055;-74
2022/03/31 12:23:40;;;;;;;35.30;25.65;;;;;;;2.51;81.50;98563.16;9989139;29;20054;-73
2022/03/31 12:29:02;;;;;;;29.10;26.08;;;;;;;2.50;81.66;98566.63;9985992;29;20516;-74
2022/03/31 12:34:04;;;;;;;32.22;27.00;;;;;;;2.33;81.92;98551.44;9985297;29;20512;-74
2022/03/31 12:39:05;;;;;;;32.42;28.27;;;;;;;2.26;82.14;98547.31;9969865;29;20061;-74
2022/03/31 12:44:20;;;;;;;36.00;27.52;;;;;;;2.08;83.08;98542.50;9974439;29;20067;-72
2022/03/31 12:49:34;;;;;;;32.75;27.20;;;;;;;2.16;82.26;98548.38;9985328;29;20061;-73
2022/03/31 12:54:40;;;;;;;32.13;26.83;;;;;;;2.23;82.04;98535.25;9984463;29;20569;-74
2022/03/31 12:59:42;;;;;;;33.13;26.70;;;;;;;2.41;81.93;98539.19;10070662;29;20073;-74
2022/03/31 13:04:45;;;;;;;32.10;27.58;;;;;;;2.50;81.44;98532.94;10106702;29;20101;-74
2022/03/31 13:09:47;;;;;;;35.42;27.90;;;;;;;2.48;81.68;98543.34;10102910;29;20052;-74
2022/03/31 13:14:49;;;;;;;39.05;28.42;;;;;;;2.57;81.35;98538.81;10101195;29;20053;-73
2022/03/31 13:19:51;;;;;;;32.35;26.58;;;;;;;2.41;81.65;98534.00;10102614;29;20075;-74
2022/03/31 13:24:56;;;;;;;36.33;27.17;;;;;;;2.44;81.29;98533.06;10104762;29;20109;-74
2022/03/31 13:29:57;;;;;;;29.40;25.65;;;;;;;2.51;81.43;98529.44;10102079;29;20055;-74
2022/03/31 13:34:59;;;;;;;33.65;27.00;;;;;;;2.46;81.42;98541.66;10101805;29;20083;-74
2022/03/31 13:40:06;;;;;;;41.55;27.05;;;;;;;2.32;81.99;98534.19;10099987;29;20126;-73
2022/03/31 13:45:12;;;;;;;29.52;26.38;;;;;;;2.35;82.01;98528.94;10102063;29;20555;-74
2022/03/31 13:50:17;;;;;;;44.95;28.80;;;;;;;2.31;82.44;98529.06;10103704;29;20075;-74
2022/03/31 13:55:19;;;;;;;35.30;28.77;;;;;;;2.30;82.08;98516.97;10101392;29;20073;-75
2022/03/31 14:05:41;;;;;;;41.67;29.48;;;;;;;2.15;82.50;98513.81;10108100;29;20049;-73
2022/03/31 14:10:43;;;;;;;42.33;27.85;;;;;;;2.16;83.87;98522.44;10110420;29;20049;-74
2022/03/31 14:15:45;;;;;;;38.15;29.27;;;;;;;2.17;84.23;98513.78;10108645;29;20491;-74
2022/03/31 14:20:46;;;;;;;39.65;30.80;;;;;;;2.20;84.86;98519.75;10107303;29;20105;-74
2022/03/31 14:25:48;;;;;;;46.35;29.83;;;;;;;2.16;86.23;98507.75;10109441;29;20547;-75
2022/03/31 14:30:50;;;;;;;44.92;31.52;;;;;;;1.98;85.21;98510.75;10108803;29;20041;-75
2022/03/31 14:36:00;;;;;;;50.78;32.47;;;;;;;2.10;87.18;98513.09;10107748;29;20109;-73
2022/03/31 14:41:09;;;;;;;48.08;33.47;;;;;;;2.19;87.35;98504.25;10106650;29;20072;-74
2022/03/31 14:46:13;;;;;;;47.60;33.55;;;;;;;2.13;87.03;98502.66;10106705;29;20120;-74
2022/03/31 14:51:15;;;;;;;45.15;31.58;;;;;;;2.12;85.73;98500.06;10108157;29;20456;-74
2022/03/31 14:56:20;;;;;;;55.75;33.47;;;;;;;2.05;86.59;98490.75;10108573;29;20045;-74
2022/03/31 15:01:23;;;;;;;46.00;32.88;;;;;;;2.20;86.14;98495.59;10106735;29;20122;-74
2022/03/31 15:06:26;;;;;;;50.55;31.98;;;;;;;2.23;84.67;98498.97;10105143;29;20490;-75
2022/03/31 15:16:49;;;;;;;53.90;33.22;;;;;;;2.32;85.16;98482.34;10108677;29;20040;-73
2022/03/31 15:21:51;;;;;;;48.33;33.00;;;;;;;2.40;86.14;98472.66;10105267;29;20511;-74
2022/03/31 15:26:53;;;;;;;51.22;34.25;;;;;;;2.42;84.95;98476.03;10103831;29;20112;-75
2022/03/31 15:31:55;;;;;;;53.67;32.97;;;;;;;2.45;84.41;98462.16;10104731;29;20426;-75
2022/03/31 15:36:56;;;;;;;51.20;33.80;;;;;;;2.45;85.07;98470.78;10108063;29;20045;-74
2022/03/31 15:41:58;;;;;;;54.83;36.25;;;;;;;2.48;85.83;98465.53;10104672;29;20053;-73
2022/03/31 15:47:02;;;;;;;57.40;35.42;;;;;;;2.64;85.91;98468.59;10104376;29;20045;-74
2022/03/31 15:52:04;;;;;;;56.50;34.83;;;;;;;2.70;85.13;98465.88;10103775;29;20057;-75
2022/03/31 15:57:06;;;;;;;53.08;35.60;;;;;;;2.62;84.88;98461.75;10106554;29;20065;-75
2022/03/31 16:02:09;;;;;;;61.67;36.95;;;;;;;2.63;85.34;98464.31;10105431;29;20077;-74
2022/03/31 16:07:11;;;;;;;53.03;35.85;;;;;;;2.71;85.77;98458.94;10087350;29;20519;-75
2022/03/31 16:12:12;;;;;;;50.35;36.22;;;;;;;2.68;85.51;98461.59;10105383;29;20049;-74
2022/03/31 16:17:14;;;;;;;59.45;38.47;;;;;;;2.66;86.47;98456.44;10104808;29;20113;-74
2022/03/31 16:22:20;;;;;;;53.92;37.00;;;;;;;2.61;86.10;98453.13;10106543;29;20053;-74
2022/03/31 16:27:21;;;;;;;54.90;36.83;;;;;;;2.82;84.38;98456.91;10087836;29;20063;-74
2022/03/31 16:32:23;;;;;;;83.93;49.83;;;;;;;2.81;84.17;98459.53;10105206;29;20052;-74
2022/03/31 16:37:28;;;;;;;48.40;35.03;;;;;;;2.85;84.08;98462.00;10104719;29;20045;-75
2022/03/31 16:42:29;;;;;;;44.40;34.92;;;;;;;2.76;84.96;98459.66;10107130;29;20049;-75
2022/03/31 16:47:32;;;;;;;48.72;33.88;;;;;;;2.99;83.96;98467.69;10104679;29;20064;-75
2022/03/31 16:52:33;;;;;;;41.33;32.47;;;;;;;2.94;84.72;98469.56;10102386;29;20052;-74
2022/03/31 16:57:35;;;;;;;43.80;33.50;;;;;;;2.88;83.59;98464.53;10103800;29;20052;-75
2022/03/31 17:02:37;;;;;;;44.65;31.95;;;;;;;3.02;83.90;98462.44;10108894;29;20056;-75
2022/03/31 17:07:39;;;;;;;57.67;36.10;;;;;;;3.03;83.27;98466.72;10122754;23;20053;-72
2022/03/31 17:12:40;;;;;;;39.30;31.00;;;;;;;3.09;83.23;98463.09;10100145;29;20084;-71
2022/03/31 17:17:43;;;;;;;35.13;31.00;;;;;;;3.23;82.40;98455.81;10099746;29;20045;-72
2022/03/31 17:22:44;;;;;;;34.70;29.90;;;;;;;3.21;82.01;98465.38;10099468;29;20049;-70
2022/03/31 17:27:46;;;;;;;39.78;29.85;;;;;;;3.20;82.83;98473.22;10104266;29;20139;-72
2022/03/31 17:32:48;;;;;;;36.22;30.05;;;;;;;3.28;81.83;98461.72;10102787;29;20048;-71
2022/03/31 17:37:50;;;;;;;36.53;29.77;;;;;;;3.22;82.10;98472.25;10100457;29;20469;-71
2022/03/31 17:42:52;;;;;;;31.60;28.38;;;;;;;3.27;81.63;98469.53;10113760;29;20063;-71
2022/03/31 17:47:55;;;;;;;30.98;27.20;;;;;;;3.24;81.49;98477.44;10113711;29;20478;-70
2022/03/31 17:52:57;;;;;;;31.33;27.05;;;;;;;3.24;81.90;98472.25;10109909;29;20064;-71
2022/03/31 17:57:59;;;;;;;28.90;26.02;;;;;;;3.37;81.08;98471.00;10104460;29;20037;-71
2022/03/31 18:03:01;;;;;;;29.48;25.70;;;;;;;3.33;81.43;98479.78;10102103;29;20512;-70
2022/03/31 18:08:03;;;;;;;29.40;26.15;;;;;;;3.28;82.04;98489.44;10102027;29;20045;-70
2022/03/31 18:13:07;;;;;;;32.72;26.13;;;;;;;3.27;82.28;98487.72;10102606;29;20048;-71
2022/03/31 18:18:13;;;;;;;30.70;25.58;;;;;;;3.32;82.00;98500.56;10104663;29;20060;-72
2022/03/31 18:23:15;;;;;;;29.02;26.30;;;;;;;3.19;83.66;98493.13;10099234;29;20057;-70
2022/03/31 18:28:17;;;;;;;28.70;26.08;;;;;;;3.34;83.07;98497.06;10100489;29;20044;-70
2022/03/31 18:38:38;;;;;;;28.70;25.75;;;;;;;3.27;83.60;98498.09;10098572;29;20132;-69
2022/03/31 18:43:43;;;;;;;29.17;26.65;;;;;;;3.21;84.57;98504.31;10100344;29;20060;-70
2022/03/31 18:48:46;;;;;;;30.25;27.00;;;;;;;3.20;84.64;98513.00;10104496;29;20459;-69
2022/03/31 18:53:47;;;;;;;30.00;26.88;;;;;;;3.19;84.97;98507.88;10106786;29;20049;-69
2022/03/31 18:58:49;;;;;;;29.20;26.60;;;;;;;3.15;86.02;98506.25;10103943;29;20041;-69
2022/03/31 19:03:50;;;;;;;28.48;25.85;;;;;;;3.27;86.68;98500.69;10104211;29;20407;-69
2022/03/31 19:08:53;;;;;;;30.95;26.27;;;;;;;3.24;85.66;98503.41;10102729;29;20468;-69
2022/03/31 19:13:55;;;;;;;25.88;23.55;;;;;;;3.16;85.69;98500.16;10103341;29;20105;-69
2022/03/31 19:18:57;;;;;;;25.73;23.50;;;;;;;3.16;85.84;98508.78;10102906;29;20059;-69
2022/03/31 19:23:59;;;;;;;24.83;22.25;;;;;;;3.34;84.85;98506.59;10104124;29;20105;-70
2022/03/31 19:29:01;;;;;;;22.95;21.25;;;;;;;3.28;84.00;98502.44;10102448;29;20049;-69
2022/03/31 19:34:03;;;;;;;23.23;20.90;;;;;;;3.33;83.31;98500.56;10102272;29;20053;-69
2022/03/31 19:39:07;;;;;;;20.60;18.85;;;;;;;3.34;82.08;98506.59;10101805;29;20048;-70
2022/03/31 19:44:09;;;;;;;24.75;17.95;;;;;;;3.44;81.37;98492.47;10102498;29;20053;-70
2022/03/31 19:49:12;;;;;;;20.88;19.02;;;;;;;3.32;82.27;98495.38;10101688;29;20053;-70
2022/03/31 19:54:14;;;;;;;22.27;19.98;;;;;;;3.40;81.29;98491.69;10101906;29;20045;-70
2022/03/31 19:59:16;;;;;;;20.35;18.55;;;;;;;3.39;81.20;98499.53;10100327;29;20123;-70
2022/03/31 20:04:23;;;;;;;21.40;19.48;;;;;;;3.43;80.45;98494.22;10101747;29;20049;-69
2022/03/31 20:09:26;;;;;;;22.58;20.38;;;;;;;3.45;80.87;98495.03;10100854;29;20056;-70
2022/03/31 20:14:29;;;;;;;19.27;17.88;;;;;;;3.48;80.42;98489.72;10100456;29;20041;-70
2022/03/31 20:19:31;;;;;;;19.88;18.25;;;;;;;3.59;79.75;98501.59;10100121;29;20049;-68
2022/03/31 20:24:33;;;;;;;19.02;17.52;;;;;;;3.62;79.38;98501.50;10098800;29;20049;-69
2022/03/31 20:29:35;;;;;;;19.27;17.40;;;;;;;3.53;78.64;98507.78;10100099;29;20073;-68
2022/03/31 20:34:40;;;;;;;18.67;16.98;;;;;;;3.34;79.10;98511.78;10100709;29;20068;-69
2022/03/31 20:39:42;;;;;;;18.63;17.08;;;;;;;3.36;78.44;98502.19;10101101;29;20456;-69
2022/03/31 20:44:44;;;;;;;19.08;17.55;;;;;;;3.28;78.76;98505.03;10099521;29;20456;-69
2022/03/31 20:49:45;;;;;;;20.63;18.58;;;;;;;3.32;78.36;98506.66;10098850;29;20088;-69
2022/03/31 20:54:47;;;;;;;19.73;17.77;;;;;;;3.26;78.29;98499.84;10099581;29;20052;-69
2022/03/31 20:59:48;;;;;;;19.88;18.38;;;;;;;3.16;79.14;98497.56;10097225;29;20045;-69
2022/03/31 21:04:50;;;;;;;18.80;17.40;;;;;;;3.27;78.72;98495.50;10097975;29;20414;-69
2022/03/31 21:09:52;;;;;;;20.13;18.27;;;;;;;3.32;79.11;98498.88;10097482;29;20052;-70
2022/03/31 21:14:53;;;;;;;18.73;17.33;;;;;;;3.20;79.55;98494.84;10098309;29;20463;-70
2022/03/31 21:19:55;;;;;;;17.83;16.52;;;;;;;3.01;80.85;98499.66;10097997;29;20049;-70
2022/03/31 21:24:56;;;;;;;18.25;16.85;;;;;;;2.87;81.92;98500.88;10098541;29;20061;-71
2022/03/31 21:29:58;;;;;;;18.52;16.92;;;;;;;2.73;81.67;98493.47;10098290;29;20045;-69
2022/03/31 21:35:00;;;;;;;17.08;15.77;;;;;;;2.73;81.23;98501.25;10097722;29;20404;-69
2022/03/31 21:40:04;;;;;;;20.33;15.85;;;;;;;2.62;81.80;98511.88;10098089;29;20051;-69
2022/03/31 21:45:06;;;;;;;15.90;14.27;;;;;;;2.71;81.38;98503.03;10098013;29;20057;-69
2022/03/31 21:50:09;;;;;;;15.98;14.60;;;;;;;2.56;81.05;98495.59;10097356;29;20053;-69
2022/03/31 21:55:13;;;;;;;16.00;14.43;;;;;;;2.45;81.58;98508.84;10095836;29;20064;-69
2022/03/31 22:00:37;;;;;;;15.55;14.25;;;;;;;2.56;80.85;98511.16;10098222;29;20504;-70
2022/03/31 22:05:58;;;;;;;14.25;13.00;;;;;;;2.56;80.69;98514.63;10097704;29;20053;-69
2022/03/31 22:16:20;;;;;;;16.00;13.02;;;;;;;2.45;80.25;98496.72;10096860;29;20045;-70
2022/03/31 22:21:21;;;;;;;13.90;12.57;;;;;;;2.47;80.19;98502.72;10097069;29;20069;-70
2022/03/31 22:26:23;;;;;;;13.85;12.52;;;;;;;2.48;78.90;98501.84;10104705;29;20053;-70
2022/03/31 22:31:25;;;;;;;14.48;11.68;;;;;;;2.46;78.32;98495.81;10104355;29;20052;-70
2022/03/31 22:36:27;;;;;;;18.15;12.43;;;;;;;2.38;78.73;98509.84;10103947;29;20045;-70
2022/03/31 22:41:28;;;;;;;12.20;11.15;;;;;;;2.57;77.31;98499.91;10103049;29;20057;-70
2022/03/31 22:46:30;;;;;;;12.40;11.40;;;;;;;2.48;76.20;98506.19;10102899;29;20499;-70
2022/03/31 22:51:33;;;;;;;11.93;10.27;;;;;;;2.46;75.80;98505.34;10102582;29;20492;-70
2022/03/31 22:56:36;;;;;;;13.98;10.45;;;;;;;2.46;75.20;98501.00;10102637;29;20045;-70
2022/03/31 23:01:38;;;;;;;11.23;10.07;;;;;;;2.49;75.41;98495.75;10102393;29;20052;-69
2022/03/31 23:06:39;;;;;;;10.95;9.95;;;;;;;2.51;74.42;98498.31;10102091;29;20053;-70
2022/03/31 23:11:41;;;;;;;10.80;8.65;;;;;;;2.52;73.36;98502.59;10124312;23;20089;-75
2022/03/31 23:16:43;;;;;;;8.68;7.82;;;;;;;2.56;72.49;98501.66;10110999;29;20102;-73
2022/03/31 23:21:44;;;;;;;12.55;8.48;;;;;;;2.60;71.94;98497.25;10111084;29;20071;-73
2022/03/31 23:26:46;;;;;;;8.32;7.38;;;;;;;2.46;72.27;98500.16;10110110;29;20435;-73
2022/03/31 23:31:48;;;;;;;10.55;8.25;;;;;;;2.61;71.27;98496.34;10111577;29;20041;-73
2022/03/31 23:36:50;;;;;;;8.95;8.15;;;;;;;2.55;72.29;98494.75;10108498;29;20041;-74